Time;durP1;ratioP1;P1;durP2;ratioP2;P2;SDS_P1;SDS_P2;PMS_P1;PMS_P2;Temp;Humidity;BMP_temperature;BMP_pressure;BME280_temperature;BME280_humidity;BME280_pressure;Samples;Min_cycle;Max_cycle;Signal;HPM_P1;HPM_P2
2021/12/21 00:01:21;;;;;;;14.45;12.50;;;;;;;;;;12492478;28;20057;-73
2021/12/21 00:07:23;;;;;;;14.32;12.88;;;;;;;;;;12501288;28;20036;-74
2021/12/21 00:13:40;;;;;;;13.95;11.18;;;;;;;;;;12502980;28;20037;-73
2021/12/21 00:25:50;;;;;;;11.43;10.27;;;;;;;;;;12502553;28;20048;-74
2021/12/21 00:31:52;;;;;;;10.17;9.13;;;;;;;;;;12500859;28;20424;-74
2021/12/21 00:37:53;;;;;;;10.30;9.25;;;;;;;;;;12500916;28;20033;-74
2021/12/21 00:43:55;;;;;;;8.73;7.82;;;;;;;;;;12501221;28;20041;-73
2021/12/21 00:50:02;;;;;;;8.23;7.32;;;;;;;;;;12500622;28;20045;-74
2021/12/21 00:56:04;;;;;;;8.20;7.00;;;;;;;;;;12501374;28;20029;-74
2021/12/21 01:02:06;;;;;;;8.33;7.47;;;;;;;;;;12500834;28;20045;-73
2021/12/21 01:08:10;;;;;;;6.60;6.00;;;;;;;;;;12500653;28;20044;-74
2021/12/21 01:20:45;;;;;;;7.45;6.68;;;;;;;;;;12500171;28;20053;-74
2021/12/21 01:39:37;;;;;;;9.18;8.27;;;;;;;;;;12499094;28;20044;-73
2021/12/21 01:51:54;;;;;;;8.48;7.68;;;;;;;;;;12497753;28;20056;-73
2021/12/21 01:57:56;;;;;;;9.18;8.18;;;;;;;;;;12497007;28;20029;-73
2021/12/21 02:03:57;;;;;;;7.35;6.63;;;;;;;;;;12496252;28;20457;-74
2021/12/21 02:09:59;;;;;;;6.63;6.03;;;;;;;;;;12496522;28;20045;-73
2021/12/21 02:16:01;;;;;;;8.63;7.82;;;;;;;;;;12497051;28;20030;-73
2021/12/21 02:22:11;;;;;;;9.73;8.73;;;;;;;;;;12496803;28;20053;-73
2021/12/21 02:34:18;;;;;;;8.90;7.70;;;;;;;;;;12496141;28;20037;-73
2021/12/21 02:40:20;;;;;;;9.10;8.15;;;;;;;;;;12496436;28;20034;-74
2021/12/21 02:46:23;;;;;;;8.13;7.38;;;;;;;;;;12495854;28;20045;-73
2021/12/21 02:52:24;;;;;;;9.02;8.13;;;;;;;;;;12494502;28;20042;-73
2021/12/21 02:58:26;;;;;;;6.60;6.00;;;;;;;;;;12493935;28;20041;-74
2021/12/21 03:04:28;;;;;;;7.88;7.18;;;;;;;;;;12494045;28;20057;-74
2021/12/21 03:10:29;;;;;;;8.15;6.93;;;;;;;;;;12496081;28;20029;-74
2021/12/21 03:16:32;;;;;;;7.00;6.40;;;;;;;;;;12494777;28;20501;-74
2021/12/21 03:22:34;;;;;;;;;;;;;;;;;;12494463;28;20506;-74
2021/12/21 03:28:36;;;;;;;7.10;6.38;;;;;;;;;;12477038;28;19916;-74
2021/12/21 03:34:37;;;;;;;6.68;5.55;;;;;;;;;;12494460;28;20038;-74
2021/12/21 03:40:39;;;;;;;5.55;5.05;;;;;;;;;;12501236;28;20485;-75
2021/12/21 03:46:46;;;;;;;5.55;5.05;;;;;;;;;;12504273;28;20038;-74
2021/12/21 03:52:48;;;;;;;4.28;3.88;;;;;;;;;;12503519;28;20053;-74
2021/12/21 03:58:50;;;;;;;5.88;5.32;;;;;;;;;;12503569;28;20038;-74
2021/12/21 04:04:53;;;;;;;6.43;5.82;;;;;;;;;;12503148;28;20060;-74
2021/12/21 04:10:55;;;;;;;6.15;5.22;;;;;;;;;;12503077;28;20398;-73
2021/12/21 04:16:57;;;;;;;5.15;4.65;;;;;;;;;;12501923;28;20029;-74
2021/12/21 04:22:59;;;;;;;6.63;5.97;;;;;;;;;;12502715;28;20554;-75
2021/12/21 04:29:01;;;;;;;6.80;6.18;;;;;;;;;;12502051;28;20037;-74
2021/12/21 04:35:02;;;;;;;5.28;4.65;;;;;;;;;;12502242;28;20409;-73
2021/12/21 04:41:28;;;;;;;5.72;5.30;;;;;;;;;;12501852;28;20394;-74
2021/12/21 04:47:27;;;;;;;5.55;4.78;;;;;;;;;;12501214;28;20211;-74
2021/12/21 04:53:29;;;;;;;4.05;3.70;;;;;;;;;;12501594;28;20045;-72
2021/12/21 04:59:31;;;;;;;4.97;4.47;;;;;;;;;;12500002;28;20034;-72
2021/12/21 05:05:33;;;;;;;5.40;4.28;;;;;;;;;;12501437;28;20045;-73
2021/12/21 05:11:36;;;;;;;5.47;4.70;;;;;;;;;;12500584;28;20040;-73
2021/12/21 05:17:38;;;;;;;4.03;3.63;;;;;;;;;;12500195;28;20410;-73
2021/12/21 05:23:40;;;;;;;3.95;3.55;;;;;;;;;;12498472;28;20524;-73
2021/12/21 05:29:42;;;;;;;6.80;6.30;;;;;;;;;;12499324;28;20470;-73
2021/12/21 05:35:44;;;;;;;3.20;2.90;;;;;;;;;;12499119;28;20037;-73
2021/12/21 05:41:54;;;;;;;2.63;2.42;;;;;;;;;;12498684;28;20601;-72
2021/12/21 05:47:56;;;;;;;3.50;3.20;;;;;;;;;;12497520;28;20048;-72
2021/12/21 05:53:57;;;;;;;2.63;2.42;;;;;;;;;;12497644;28;20044;-72
2021/12/21 05:59:59;;;;;;;2.75;2.33;;;;;;;;;;12496880;28;20033;-73
2021/12/21 06:06:01;;;;;;;3.35;3.05;;;;;;;;;;12497824;28;20401;-73
2021/12/21 06:12:11;;;;;;;3.13;2.85;;;;;;;;;;12480199;28;20030;-73
2021/12/21 06:30:54;;;;;;;6.22;5.47;;;;;;;;;;12465289;28;20446;-73
2021/12/21 06:36:56;;;;;;;8.43;6.43;;;;;;;;;;12485579;28;20033;-74
2021/12/21 06:43:01;;;;;;;8.75;6.50;;;;;;;;;;12494664;28;20044;-74
2021/12/21 06:55:23;;;;;;;6.32;5.70;;;;;;;;;;12521324;28;20044;-75
2021/12/21 07:01:26;;;;;;;8.20;7.40;;;;;;;;;;12496795;28;20033;-75
2021/12/21 07:07:28;;;;;;;10.95;8.35;;;;;;;;;;12482437;28;20037;-75
2021/12/21 07:19:51;;;;;;;11.80;9.95;;;;;;;;;;12483432;28;20506;-74
2021/12/21 07:25:54;;;;;;;11.43;10.15;;;;;;;;;;12488019;28;20053;-74
2021/12/21 07:31:56;;;;;;;13.05;10.45;;;;;;;;;;12498481;28;20033;-75
2021/12/21 07:38:00;;;;;;;10.65;9.50;;;;;;;;;;12486524;28;20475;-74
2021/12/21 07:44:01;;;;;;;11.00;8.73;;;;;;;;;;12483437;28;20045;-75
2021/12/21 07:50:03;;;;;;;8.10;7.07;;;;;;;;;;12496077;28;20029;-74
2021/12/21 07:56:05;;;;;;;8.80;7.80;;;;;;;;;;12500551;28;20036;-73
2021/12/21 08:02:08;;;;;;;7.65;6.57;;;;;;;;;;12491905;28;20034;-74
2021/12/21 08:08:16;;;;;;;8.20;6.95;;;;;;;;;;12499059;28;20033;-73
2021/12/21 08:14:18;;;;;;;7.30;6.60;;;;;;;;;;12479908;28;20041;-73
2021/12/21 08:20:20;;;;;;;7.45;6.60;;;;;;;;;;12478809;28;20053;-74
2021/12/21 08:26:21;;;;;;;8.85;7.32;;;;;;;;;;12498544;28;20521;-74
2021/12/21 08:32:23;;;;;;;7.18;6.47;;;;;;;;;;12470481;28;20037;-74
2021/12/21 08:38:25;;;;;;;8.55;7.68;;;;;;;;;;12501071;28;20044;-74
2021/12/21 08:44:27;;;;;;;8.60;7.43;;;;;;;;;;12507505;28;20038;-75
2021/12/21 08:50:29;;;;;;;7.60;6.60;;;;;;;;;;12474667;28;20029;-74
2021/12/21 08:56:31;;;;;;;8.27;7.47;;;;;;;;;;12493752;28;20033;-75
2021/12/21 09:02:35;;;;;;;9.15;7.75;;;;;;;;;;12490646;28;20041;-75
2021/12/21 09:08:37;;;;;;;6.60;5.93;;;;;;;;;;12482842;28;20044;-72
2021/12/21 09:14:39;;;;;;;8.50;7.60;;;;;;;;;;12458247;28;20516;-74
2021/12/21 09:20:41;;;;;;;7.75;6.90;;;;;;;;;;12460775;28;20088;-73
2021/12/21 09:26:43;;;;;;;9.13;8.18;;;;;;;;;;12453647;28;20453;-73
2021/12/21 09:32:45;;;;;;;8.50;7.63;;;;;;;;;;12469735;28;20314;-73
2021/12/21 09:38:47;;;;;;;11.48;10.27;;;;;;;;;;12457986;28;20073;-74
2021/12/21 09:44:49;;;;;;;10.40;8.80;;;;;;;;;;12458686;28;20536;-73
2021/12/21 09:50:51;;;;;;;9.70;8.70;;;;;;;;;;12436656;28;20167;-73
2021/12/21 09:56:53;;;;;;;8.50;7.55;;;;;;;;;;12452251;28;20447;-73
2021/12/21 10:03:02;;;;;;;11.02;8.55;;;;;;;;;;12445816;28;20069;-75
2021/12/21 10:09:07;;;;;;;8.82;7.53;;;;;;;;;;12452091;28;20493;-75
2021/12/21 10:15:14;;;;;;;9.90;8.93;;;;;;;;;;12442354;28;20033;-75
2021/12/21 10:21:16;;;;;;;10.82;9.73;;;;;;;;;;12470077;28;20076;-74
2021/12/21 10:27:19;;;;;;;11.17;10.17;;;;;;;;;;12483464;28;20072;-73
2021/12/21 10:33:21;;;;;;;;;;;;;;;;;;12483257;28;21424;-73
2021/12/21 10:39:32;;;;;;;13.25;11.85;;;;;;;;;;12486424;28;19909;-74
2021/12/21 10:45:41;;;;;;;11.45;10.32;;;;;;;;;;12483867;28;20493;-75
2021/12/21 10:51:55;;;;;;;11.85;10.65;;;;;;;;;;12481760;28;20056;-75
2021/12/21 10:58:01;;;;;;;11.07;9.43;;;;;;;;;;12482202;28;20034;-74
2021/12/21 11:04:03;;;;;;;12.02;10.52;;;;;;;;;;12473110;28;20044;-74
2021/12/21 11:10:10;;;;;;;11.20;10.07;;;;;;;;;;12476297;28;20037;-73
2021/12/21 11:16:13;;;;;;;12.50;10.88;;;;;;;;;;12480550;28;20041;-73
2021/12/21 11:22:15;;;;;;;14.45;12.15;;;;;;;;;;12472406;28;20057;-74
2021/12/21 11:28:18;;;;;;;13.05;11.40;;;;;;;;;;12476477;28;20037;-74
2021/12/21 11:34:23;;;;;;;11.80;9.50;;;;;;;;;;12476395;28;20055;-74
2021/12/21 11:40:27;;;;;;;12.10;10.82;;;;;;;;;;12475380;28;20049;-74
2021/12/21 11:46:34;;;;;;;12.73;11.43;;;;;;;;;;12479773;28;20042;-74
2021/12/21 11:52:44;;;;;;;11.65;9.82;;;;;;;;;;12474772;28;20040;-74
2021/12/21 11:58:49;;;;;;;10.95;9.82;;;;;;;;;;12486821;28;20037;-74
2021/12/21 12:04:57;;;;;;;9.07;8.25;;;;;;;;;;12491491;28;20508;-74
2021/12/21 12:11:00;;;;;;;9.63;8.73;;;;;;;;;;12489666;28;20033;-74
2021/12/21 12:17:05;;;;;;;10.85;9.57;;;;;;;;;;12481235;28;20026;-75
2021/12/21 12:23:07;;;;;;;11.40;10.20;;;;;;;;;;12499432;28;20049;-74
2021/12/21 12:29:19;;;;;;;10.85;9.73;;;;;;;;;;12481568;28;20045;-74
2021/12/21 12:35:23;;;;;;;12.60;10.10;;;;;;;;;;12499345;28;20478;-73
2021/12/21 12:41:25;;;;;;;9.55;8.55;;;;;;;;;;12475991;28;20037;-74
2021/12/21 12:47:27;;;;;;;10.25;9.23;;;;;;;;;;12501432;28;20041;-74
2021/12/21 12:53:37;;;;;;;11.60;9.85;;;;;;;;;;12501356;28;20064;-74
2021/12/21 12:59:49;;;;;;;12.82;11.05;;;;;;;;;;12452438;28;20053;-74
2021/12/21 13:05:54;;;;;;;13.73;11.50;;;;;;;;;;12466971;28;20041;-73
2021/12/21 13:11:57;;;;;;;11.25;9.43;;;;;;;;;;12482044;28;20038;-74
2021/12/21 13:18:04;;;;;;;11.23;10.13;;;;;;;;;;12491477;28;20034;-73
2021/12/21 13:24:09;;;;;;;11.43;10.25;;;;;;;;;;12509843;28;20049;-74
2021/12/21 13:30:11;;;;;;;12.68;11.07;;;;;;;;;;12486096;28;20485;-73
2021/12/21 13:36:12;;;;;;;13.90;12.40;;;;;;;;;;12478383;28;20405;-73
2021/12/21 13:42:18;;;;;;;14.65;13.10;;;;;;;;;;12478386;28;20038;-74
2021/12/21 13:48:20;;;;;;;13.63;10.85;;;;;;;;;;12480139;28;20026;-74
2021/12/21 13:54:23;;;;;;;13.75;12.15;;;;;;;;;;12499023;28;20030;-75
2021/12/21 14:00:29;;;;;;;12.18;10.98;;;;;;;;;;12496910;28;20129;-74
2021/12/21 14:06:49;;;;;;;11.18;10.07;;;;;;;;;;12497986;28;20060;-74
2021/12/21 14:12:57;;;;;;;11.90;10.70;;;;;;;;;;12497157;28;20026;-74
2021/12/21 14:19:02;;;;;;;10.45;9.35;;;;;;;;;;12495750;28;20048;-74
2021/12/21 14:25:13;;;;;;;13.48;12.07;;;;;;;;;;12494445;28;20054;-74
2021/12/21 14:31:15;;;;;;;9.63;8.35;;;;;;;;;;12495537;28;20034;-74
2021/12/21 14:37:18;;;;;;;9.85;8.85;;;;;;;;;;12495037;28;20029;-74
2021/12/21 14:43:27;;;;;;;10.32;9.32;;;;;;;;;;12496951;28;20053;-74
2021/12/21 14:49:41;;;;;;;8.68;7.43;;;;;;;;;;12496112;28;20040;-73
2021/12/21 14:55:42;;;;;;;9.63;8.63;;;;;;;;;;12494440;28;20041;-73
2021/12/21 15:01:53;;;;;;;10.82;9.60;;;;;;;;;;12495394;28;20032;-74
2021/12/21 15:07:57;;;;;;;8.43;7.60;;;;;;;;;;12493860;28;20410;-73
2021/12/21 15:13:58;;;;;;;9.90;8.48;;;;;;;;;;12495053;28;20474;-73
2021/12/21 15:20:00;;;;;;;6.78;6.07;;;;;;;;;;12493410;28;20053;-73
2021/12/21 15:26:02;;;;;;;6.30;5.68;;;;;;;;;;12494477;28;20052;-73
2021/12/21 15:32:04;;;;;;;7.85;6.40;;;;;;;;;;12494249;28;20509;-74
2021/12/21 15:38:06;;;;;;;7.88;6.72;;;;;;;;;;12493364;28;20038;-74
2021/12/21 15:44:08;;;;;;;10.25;8.98;;;;;;;;;;12493392;28;20041;-74
2021/12/21 15:50:10;;;;;;;10.00;8.15;;;;;;;;;;12494385;28;20044;-73
2021/12/21 15:56:13;;;;;;;9.60;8.60;;;;;;;;;;12492902;28;20049;-73
2021/12/21 16:02:19;;;;;;;11.07;9.88;;;;;;;;;;12492813;28;20034;-74
2021/12/21 16:08:20;;;;;;;9.32;8.00;;;;;;;;;;12492234;28;20033;-74
2021/12/21 16:14:22;;;;;;;8.73;7.93;;;;;;;;;;12493989;28;20029;-74
2021/12/21 16:20:24;;;;;;;11.75;10.07;;;;;;;;;;12493213;28;20053;-73
2021/12/21 16:26:27;;;;;;;11.83;9.20;;;;;;;;;;12492026;28;20053;-73
2021/12/21 16:32:29;;;;;;;8.70;7.90;;;;;;;;;;12493254;28;20280;-75
2021/12/21 16:38:30;;;;;;;10.57;9.43;;;;;;;;;;12491393;28;20394;-74
2021/12/21 16:44:33;;;;;;;16.52;14.80;;;;;;;;;;12475884;28;20041;-74
2021/12/21 16:50:34;;;;;;;12.80;11.50;;;;;;;;;;12500757;28;20199;-74
2021/12/21 16:56:36;;;;;;;11.27;10.00;;;;;;;;;;12501193;28;20048;-76
2021/12/21 17:02:38;;;;;;;11.75;10.55;;;;;;;;;;12500308;28;20410;-76
2021/12/21 17:08:42;;;;;;;10.88;8.93;;;;;;;;;;12499867;28;20037;-75
2021/12/21 17:14:44;;;;;;;10.82;9.73;;;;;;;;;;12500145;28;20470;-78
2021/12/21 17:20:45;;;;;;;12.00;10.70;;;;;;;;;;12498635;28;20078;-76
2021/12/21 17:26:48;;;;;;;9.90;8.90;;;;;;;;;;12499599;28;20046;-76
2021/12/21 17:32:49;;;;;;;10.30;9.23;;;;;;;;;;12499423;28;20037;-77
2021/12/21 17:38:51;;;;;;;9.75;8.63;;;;;;;;;;12498255;28;20045;-78
2021/12/21 17:44:53;;;;;;;10.05;8.90;;;;;;;;;;12498024;28;20038;-78
2021/12/21 17:50:55;;;;;;;8.60;7.70;;;;;;;;;;12499680;28;20025;-76
2021/12/21 17:56:57;;;;;;;10.77;8.98;;;;;;;;;;12480420;28;20037;-76
2021/12/21 18:02:58;;;;;;;9.95;8.95;;;;;;;;;;12496775;28;20053;-77
2021/12/21 18:09:00;;;;;;;10.55;9.38;;;;;;;;;;12497687;28;20037;-79
2021/12/21 18:15:02;;;;;;;11.65;10.45;;;;;;;;;;12479851;28;20052;-74
2021/12/21 18:21:04;;;;;;;12.73;11.35;;;;;;;;;;12496946;28;20045;-78
2021/12/21 18:27:10;;;;;;;11.07;9.90;;;;;;;;;;12495441;28;20060;-76
2021/12/21 18:33:12;;;;;;;16.67;14.15;;;;;;;;;;12496709;28;20038;-77
2021/12/21 18:39:18;;;;;;;20.75;15.57;;;;;;;;;;12495117;28;20033;-77
2021/12/21 18:45:21;;;;;;;14.48;12.80;;;;;;;;;;12494954;28;20041;-77
2021/12/21 18:51:23;;;;;;;22.85;20.42;;;;;;;;;;12496146;28;20034;-74
2021/12/21 18:57:25;;;;;;;13.93;12.10;;;;;;;;;;12495266;28;20037;-73
2021/12/21 19:03:27;;;;;;;13.52;12.13;;;;;;;;;;12494982;28;20052;-73
2021/12/21 19:09:29;;;;;;;11.47;10.27;;;;;;;;;;12495907;28;20029;-74
2021/12/21 19:15:31;;;;;;;14.20;12.05;;;;;;;;;;12493711;28;20532;-74
2021/12/21 19:21:34;;;;;;;11.82;9.93;;;;;;;;;;12495521;28;20497;-75
2021/12/21 19:27:37;;;;;;;13.38;12.07;;;;;;;;;;12493427;28;20053;-75
2021/12/21 19:33:39;;;;;;;10.90;9.73;;;;;;;;;;12493473;28;20040;-75
2021/12/21 19:39:41;;;;;;;11.87;10.43;;;;;;;;;;12493372;28;20033;-74
2021/12/21 19:45:43;;;;;;;12.23;10.88;;;;;;;;;;12493263;28;20045;-74
2021/12/21 19:51:44;;;;;;;12.02;10.82;;;;;;;;;;12495165;28;20038;-75
2021/12/21 19:57:47;;;;;;;11.90;10.65;;;;;;;;;;12492983;28;20044;-75
2021/12/21 20:03:49;;;;;;;10.05;9.05;;;;;;;;;;12493993;28;20394;-73
2021/12/21 20:09:50;;;;;;;11.17;9.13;;;;;;;;;;12492735;28;20398;-74
2021/12/21 20:15:52;;;;;;;10.20;8.80;;;;;;;;;;12492292;28;20036;-74
2021/12/21 20:21:55;;;;;;;11.48;10.25;;;;;;;;;;12481785;28;20057;-75
2021/12/21 20:27:57;;;;;;;12.70;11.40;;;;;;;;;;12502559;28;20052;-75
2021/12/21 20:33:59;;;;;;;11.13;9.77;;;;;;;;;;12501477;28;20438;-73
2021/12/21 20:40:01;;;;;;;11.82;10.48;;;;;;;;;;12500778;28;20034;-75
2021/12/21 20:46:03;;;;;;;11.40;10.27;;;;;;;;;;12500527;28;20057;-75
2021/12/21 20:52:05;;;;;;;12.00;10.53;;;;;;;;;;12484313;28;20041;-75
2021/12/21 20:58:08;;;;;;;8.23;7.50;;;;;;;;;;12483939;28;20508;-74
2021/12/21 21:04:10;;;;;;;10.07;9.07;;;;;;;;;;12500954;28;20053;-74
2021/12/21 21:10:13;;;;;;;10.30;9.05;;;;;;;;;;12483298;28;20037;-75
2021/12/21 21:16:15;;;;;;;8.70;7.80;;;;;;;;;;12499276;28;20033;-74
2021/12/21 21:22:17;;;;;;;8.95;8.02;;;;;;;;;;12500778;28;20053;-74
2021/12/21 21:28:19;;;;;;;10.23;8.73;;;;;;;;;;12498965;28;20045;-74
2021/12/21 21:34:21;;;;;;;9.23;8.07;;;;;;;;;;12499673;28;20030;-75
2021/12/21 21:40:23;;;;;;;10.43;9.38;;;;;;;;;;12498277;28;20033;-74
2021/12/21 21:46:25;;;;;;;10.82;9.65;;;;;;;;;;12498227;28;20052;-75
2021/12/21 21:52:27;;;;;;;9.35;8.35;;;;;;;;;;12498279;28;20052;-73
2021/12/21 21:58:28;;;;;;;11.55;10.38;;;;;;;;;;12497498;28;20029;-73
2021/12/21 22:04:32;;;;;;;12.88;10.07;;;;;;;;;;12497173;28;20088;-74
2021/12/21 22:10:35;;;;;;;8.50;7.43;;;;;;;;;;12498187;28;20044;-75
2021/12/21 22:16:36;;;;;;;8.10;7.40;;;;;;;;;;12496532;28;20033;-74
2021/12/21 22:22:38;;;;;;;7.82;7.03;;;;;;;;;;12479954;28;20045;-74
2021/12/21 22:28:40;;;;;;;6.67;6.00;;;;;;;;;;12497118;28;20045;-74
2021/12/21 22:34:42;;;;;;;7.43;5.95;;;;;;;;;;12496666;28;20030;-74
2021/12/21 22:40:43;;;;;;;7.88;6.95;;;;;;;;;;12496659;28;20041;-74
2021/12/21 22:46:45;;;;;;;8.73;7.72;;;;;;;;;;12494394;28;20042;-74
2021/12/21 22:52:47;;;;;;;6.93;6.22;;;;;;;;;;12496936;28;20471;-74
2021/12/21 22:58:48;;;;;;;8.70;7.13;;;;;;;;;;12496156;28;20049;-74
2021/12/21 23:04:51;;;;;;;6.38;5.78;;;;;;;;;;12495482;28;20053;-74
2021/12/21 23:10:53;;;;;;;6.82;6.20;;;;;;;;;;12495407;28;20044;-74
2021/12/21 23:16:55;;;;;;;5.65;5.15;;;;;;;;;;12493975;28;20036;-74
2021/12/21 23:22:56;;;;;;;6.97;6.18;;;;;;;;;;12495048;28;20053;-73
2021/12/21 23:28:58;;;;;;;8.35;6.68;;;;;;;;;;12494508;28;20068;-74
2021/12/21 23:35:00;;;;;;;7.75;6.97;;;;;;;;;;12494711;28;20029;-74
2021/12/21 23:41:02;;;;;;;8.10;6.73;;;;;;;;;;12493142;28;20502;-75
2021/12/21 23:47:04;;;;;;;7.97;7.18;;;;;;;;;;12494384;28;20041;-74
2021/12/21 23:53:06;;;;;;;7.38;6.63;;;;;;;;;;12493628;28;20036;-73
2021/12/21 23:59:08;;;;;;;6.40;5.72;;;;;;;;;;12502868;28;20502;-73
